Time;durP1;ratioP1;P1;durP2;ratioP2;P2;SDS_P1;SDS_P2;PMS_P1;PMS_P2;Temp;Humidity;BMP_temperature;BMP_pressure;BME280_temperature;BME280_humidity;BME280_pressure;Samples;Min_cycle;Max_cycle;Signal;HPM_P1;HPM_P2
2021/10/13 00:00:09;;;;;;;247.43;231.55;;;6.70;99.90;;;;;;4996063;28;20197;-84
2021/10/13 00:02:38;;;;;;;308.58;290.67;;;6.70;99.90;;;;;;4996549;28;20178;-84
2021/10/13 00:05:12;;;;;;;284.58;267.10;;;6.60;99.90;;;;;;4996284;28;20170;-85
2021/10/13 00:07:38;;;;;;;285.55;268.13;;;6.60;99.90;;;;;;4995329;28;20194;-84
2021/10/13 00:10:05;;;;;;;310.83;292.47;;;6.60;99.90;;;;;;4997540;28;20293;-84
2021/10/13 00:12:34;;;;;;;296.15;278.40;;;6.60;99.90;;;;;;4996669;28;20456;-85
2021/10/13 00:15:15;;;;;;;331.10;311.65;;;6.60;99.90;;;;;;4996819;28;20174;-85
2021/10/13 00:17:40;;;;;;;313.77;294.85;;;6.60;99.90;;;;;;4996413;28;20178;-84
2021/10/13 00:20:07;;;;;;;261.87;244.80;;;6.60;99.90;;;;;;4995799;28;20170;-84
2021/10/13 00:22:35;;;;;;;332.02;312.00;;;6.60;99.90;;;;;;4996861;28;20171;-84
2021/10/13 00:25:07;;;;;;;309.92;290.83;;;6.50;99.90;;;;;;4995145;28;20174;-84
2021/10/13 00:27:33;;;;;;;271.77;254.85;;;6.50;99.90;;;;;;4996506;28;20197;-84
2021/10/13 00:29:59;;;;;;;265.73;248.27;;;6.50;99.90;;;;;;4996318;28;20182;-85
2021/10/13 00:32:24;;;;;;;231.20;215.57;;;6.60;99.90;;;;;;4978690;28;20194;-84
2021/10/13 00:34:50;;;;;;;310.70;291.63;;;6.50;99.90;;;;;;4996226;28;20170;-84
2021/10/13 00:37:19;;;;;;;264.37;247.67;;;6.50;99.90;;;;;;4996504;28;20418;-84
2021/10/13 00:39:45;;;;;;;301.80;283.08;;;6.50;99.90;;;;;;4996449;28;20189;-84
2021/10/13 00:42:14;;;;;;;285.57;268.07;;;6.40;99.90;;;;;;4996856;28;20182;-84
2021/10/13 00:45:06;;;;;;;258.90;241.88;;;6.40;99.90;;;;;;4996448;28;20416;-84
2021/10/13 00:47:37;;;;;;;260.90;244.35;;;6.50;99.90;;;;;;4995657;28;20198;-85
2021/10/13 00:50:14;;;;;;;287.73;270.08;;;6.50;99.90;;;;;;4997543;28;20233;-84
2021/10/13 00:52:42;;;;;;;305.25;287.30;;;6.60;99.90;;;;;;4996774;28;20185;-84
2021/10/13 00:55:23;;;;;;;319.25;300.80;;;6.60;99.90;;;;;;4996431;28;20221;-85
2021/10/13 00:57:52;;;;;;;350.48;330.15;;;6.60;99.90;;;;;;4996229;28;20221;-84
2021/10/13 01:00:21;;;;;;;337.20;317.23;;;6.60;99.90;;;;;;4996608;28;20159;-84
2021/10/13 01:03:27;;;;;;;328.30;309.60;;;6.70;99.90;;;;;;4996372;28;20174;-84
2021/10/13 01:06:15;;;;;;;328.88;309.75;;;6.60;99.90;;;;;;5059058;22;20182;-81
2021/10/13 01:08:45;;;;;;;330.02;311.27;;;6.50;99.90;;;;;;5098074;22;20591;-82
2021/10/13 01:16:42;;;;;;;334.35;314.92;;;6.50;99.90;;;;;;5347965;22;20591;-82
2021/10/13 01:19:26;;;;;;;289.95;272.15;;;6.50;99.90;;;;;;5036621;28;20197;-83
2021/10/13 01:22:28;;;;;;;273.23;256.10;;;6.50;99.90;;;;;;5039406;28;20150;-83
2021/10/13 01:25:33;;;;;;;297.48;279.95;;;6.40;99.90;;;;;;5034879;28;20176;-83
2021/10/13 01:28:03;;;;;;;317.13;298.30;;;6.30;99.90;;;;;;5026316;28;20200;-82
2021/10/13 01:30:44;;;;;;;356.60;336.45;;;6.20;99.90;;;;;;5036726;28;20157;-83
2021/10/13 01:33:25;;;;;;;307.23;288.77;;;6.20;99.90;;;;;;5037765;28;20192;-83
2021/10/13 01:35:58;;;;;;;342.55;323.35;;;6.20;99.90;;;;;;5037625;28;20165;-82
2021/10/13 01:38:27;;;;;;;290.10;272.25;;;6.10;99.90;;;;;;5038276;28;20196;-83
2021/10/13 01:40:56;;;;;;;323.27;303.95;;;6.10;99.90;;;;;;5037792;28;20180;-82
2021/10/13 01:43:23;;;;;;;300.30;282.33;;;6.10;99.90;;;;;;5038208;28;20252;-82
2021/10/13 01:45:51;;;;;;;300.90;283.08;;;6.00;99.90;;;;;;5036862;28;20637;-83
2021/10/13 01:48:17;;;;;;;292.13;274.65;;;6.00;99.90;;;;;;5039936;28;20228;-81
2021/10/13 01:50:46;;;;;;;338.95;319.40;;;6.00;99.90;;;;;;5038873;28;20173;-82
2021/10/13 01:53:15;;;;;;;325.75;307.17;;;6.00;99.90;;;;;;5038935;28;20188;-81
2021/10/13 01:55:43;;;;;;;283.67;266.67;;;6.00;99.90;;;;;;5035940;28;20209;-81
2021/10/13 01:58:10;;;;;;;328.50;309.20;;;6.00;99.90;;;;;;5037967;28;20679;-82
2021/10/13 02:00:36;;;;;;;329.85;310.75;;;5.90;99.90;;;;;;5037650;28;20161;-82
2021/10/13 02:03:06;;;;;;;318.35;300.08;;;5.90;99.90;;;;;;5037254;28;20165;-83
2021/10/13 02:05:34;;;;;;;300.58;282.63;;;5.90;99.90;;;;;;5036658;28;20243;-82
2021/10/13 02:08:01;;;;;;;318.77;300.42;;;5.80;99.90;;;;;;5036948;28;20260;-82
2021/10/13 02:10:27;;;;;;;340.25;320.45;;;5.80;99.90;;;;;;5037085;28;20172;-81
2021/10/13 02:12:57;;;;;;;300.83;282.90;;;5.80;99.90;;;;;;5035318;28;20228;-82
2021/10/13 02:15:25;;;;;;;327.02;308.17;;;5.80;99.90;;;;;;5036761;28;20153;-82
2021/10/13 02:17:55;;;;;;;315.17;296.73;;;5.70;99.90;;;;;;5036698;28;20251;-81
2021/10/13 02:20:22;;;;;;;304.85;286.65;;;5.70;99.90;;;;;;5035974;28;20200;-82
2021/10/13 02:22:52;;;;;;;357.98;337.20;;;5.70;99.90;;;;;;5036758;28;20691;-82
2021/10/13 02:25:18;;;;;;;327.30;308.55;;;5.60;99.90;;;;;;5037075;28;20158;-82
2021/10/13 02:28:29;;;;;;;272.83;255.57;;;5.60;99.90;;;;;;5036765;28;20181;-82
2021/10/13 02:30:55;;;;;;;323.88;304.73;;;5.60;99.90;;;;;;5015289;28;20178;-82
2021/10/13 02:33:21;;;;;;;295.43;277.87;;;5.60;99.90;;;;;;4998568;28;20255;-81
2021/10/13 02:35:47;;;;;;;333.00;313.50;;;5.60;99.90;;;;;;5016160;28;20176;-82
2021/10/13 02:38:12;;;;;;;298.50;281.00;;;5.60;99.90;;;;;;5035733;28;20185;-82
2021/10/13 02:40:38;;;;;;;307.77;289.60;;;5.60;99.90;;;;;;5035008;28;20507;-82
2021/10/13 02:43:05;;;;;;;327.87;308.80;;;5.60;99.90;;;;;;5036979;28;20174;-82
2021/10/13 02:45:36;;;;;;;304.88;286.55;;;5.60;99.90;;;;;;5037333;28;20181;-83
2021/10/13 02:48:26;;;;;;;331.60;312.58;;;5.60;99.90;;;;;;5037416;28;20694;-82
2021/10/13 02:51:20;;;;;;;272.42;255.55;;;5.60;99.90;;;;;;5037243;28;20207;-82
2021/10/13 02:54:02;;;;;;;299.95;282.17;;;5.60;99.90;;;;;;5036742;28;20167;-82
2021/10/13 02:56:38;;;;;;;300.23;282.60;;;5.50;99.90;;;;;;5034974;28;20158;-82
2021/10/13 02:59:21;;;;;;;289.38;271.85;;;5.50;99.90;;;;;;5035296;28;20250;-82
2021/10/13 03:01:47;;;;;;;305.52;287.40;;;5.60;99.90;;;;;;5036629;28;20158;-82
2021/10/13 03:04:26;;;;;;;328.05;308.95;;;5.50;99.90;;;;;;5036392;28;20165;-82
2021/10/13 03:07:04;;;;;;;283.40;266.38;;;5.50;99.90;;;;;;5034508;28;20567;-82
2021/10/13 03:09:34;;;;;;;297.38;279.65;;;5.50;99.90;;;;;;5036721;28;20155;-82
2021/10/13 03:12:03;;;;;;;346.63;326.85;;;5.50;99.90;;;;;;5036279;28;20193;-83
2021/10/13 03:14:30;;;;;;;298.52;280.77;;;5.50;99.90;;;;;;5036562;28;20181;-82
2021/10/13 03:16:57;;;;;;;319.88;301.45;;;5.50;99.90;;;;;;5035092;28;20591;-82
2021/10/13 03:19:25;;;;;;;318.63;300.25;;;5.50;99.90;;;;;;5034914;28;20157;-82
2021/10/13 03:21:51;;;;;;;316.20;297.63;;;5.50;99.90;;;;;;5037118;28;20543;-82
2021/10/13 03:24:18;;;;;;;306.00;288.10;;;5.50;99.90;;;;;;5036356;28;20529;-82
2021/10/13 03:26:48;;;;;;;340.55;320.90;;;5.60;99.90;;;;;;5036231;28;20165;-82
2021/10/13 03:29:14;;;;;;;303.42;285.63;;;5.60;99.90;;;;;;5035050;28;20533;-83
2021/10/13 03:31:40;;;;;;;340.50;321.43;;;5.70;99.90;;;;;;5035811;28;20188;-83
2021/10/13 03:34:07;;;;;;;324.70;305.63;;;5.70;99.90;;;;;;5035786;28;20169;-82
2021/10/13 03:36:41;;;;;;;323.65;305.08;;;5.80;99.90;;;;;;5036306;28;20161;-82
2021/10/13 03:39:07;;;;;;;344.40;324.27;;;5.80;99.90;;;;;;5034429;28;20285;-82
2021/10/13 03:41:33;;;;;;;288.73;271.35;;;5.90;99.90;;;;;;5036372;28;20646;-82
2021/10/13 03:43:59;;;;;;;396.77;373.93;;;5.90;99.90;;;;;;5036229;28;20204;-83
2021/10/13 03:46:24;;;;;;;326.03;306.57;;;5.90;99.90;;;;;;5036201;28;20458;-83
2021/10/13 03:48:51;;;;;;;304.27;286.33;;;5.90;99.90;;;;;;5035591;28;20668;-83
2021/10/13 03:51:18;;;;;;;313.10;294.70;;;6.00;99.90;;;;;;5035797;28;20176;-82
2021/10/13 03:53:44;;;;;;;325.50;306.13;;;5.90;99.90;;;;;;5035726;28;20168;-83
2021/10/13 03:56:11;;;;;;;324.63;305.90;;;5.90;99.90;;;;;;5035206;28;20240;-83
2021/10/13 03:58:37;;;;;;;298.65;281.25;;;5.90;99.90;;;;;;5035668;28;20184;-82
2021/10/13 04:01:02;;;;;;;300.17;282.47;;;5.90;99.90;;;;;;5035747;28;20240;-83
2021/10/13 04:03:28;;;;;;;337.33;317.40;;;5.90;99.90;;;;;;5034941;28;20595;-82
2021/10/13 04:05:54;;;;;;;311.00;292.43;;;5.90;99.90;;;;;;5034008;28;20173;-82
2021/10/13 04:08:19;;;;;;;293.00;275.10;;;6.00;99.90;;;;;;5035785;28;20188;-83
2021/10/13 04:10:45;;;;;;;316.17;298.27;;;6.00;99.90;;;;;;5035800;28;20188;-83
2021/10/13 04:13:11;;;;;;;283.20;265.73;;;6.00;99.90;;;;;;5036015;28;20252;-82
2021/10/13 04:15:36;;;;;;;276.30;259.67;;;6.00;99.90;;;;;;5035894;28;20168;-83
2021/10/13 04:18:04;;;;;;;297.40;280.00;;;6.00;99.90;;;;;;5035799;28;20216;-82
2021/10/13 04:20:30;;;;;;;309.98;292.05;;;6.00;99.90;;;;;;5034941;28;20177;-83
2021/10/13 04:22:56;;;;;;;292.20;274.27;;;6.00;99.90;;;;;;5035878;28;20574;-82
2021/10/13 04:25:21;;;;;;;301.65;283.17;;;6.10;99.90;;;;;;5035448;28;20416;-82
2021/10/13 04:27:47;;;;;;;324.47;305.37;;;6.00;99.90;;;;;;5034732;28;20668;-82
2021/10/13 04:30:13;;;;;;;295.47;277.70;;;6.00;99.90;;;;;;5035914;28;20176;-82
2021/10/13 04:32:39;;;;;;;274.48;257.38;;;6.00;99.90;;;;;;5034389;28;20192;-83
2021/10/13 04:35:05;;;;;;;298.93;281.70;;;5.90;99.90;;;;;;5035302;28;20176;-82
2021/10/13 04:37:31;;;;;;;312.48;294.52;;;5.90;99.90;;;;;;5034855;28;20189;-82
2021/10/13 04:39:56;;;;;;;249.23;233.53;;;5.90;99.90;;;;;;5036026;28;20169;-83
2021/10/13 04:42:22;;;;;;;286.90;269.57;;;5.80;99.90;;;;;;5035226;28;20253;-83
2021/10/13 04:44:48;;;;;;;293.33;276.23;;;5.80;99.90;;;;;;5035570;28;20169;-83
2021/10/13 04:47:13;;;;;;;293.80;276.03;;;5.90;99.90;;;;;;5035476;28;20215;-83
2021/10/13 04:49:39;;;;;;;305.30;287.07;;;5.90;99.90;;;;;;5035161;28;20404;-82
2021/10/13 04:52:05;;;;;;;275.20;258.23;;;5.90;99.90;;;;;;5039558;28;20197;-83
2021/10/13 04:54:31;;;;;;;274.07;256.57;;;5.90;99.90;;;;;;5037903;28;20203;-82
2021/10/13 04:56:59;;;;;;;288.57;270.83;;;6.00;99.90;;;;;;5038439;28;20451;-83
2021/10/13 04:59:25;;;;;;;256.45;240.13;;;6.00;99.90;;;;;;5039127;28;20173;-82
2021/10/13 05:01:51;;;;;;;270.73;253.33;;;6.00;99.90;;;;;;5039683;28;20255;-83
2021/10/13 05:04:17;;;;;;;323.08;304.75;;;6.00;99.90;;;;;;5038779;28;20173;-82
2021/10/13 05:06:43;;;;;;;305.73;287.23;;;6.00;99.90;;;;;;5038867;28;20240;-83
2021/10/13 05:09:09;;;;;;;254.40;238.23;;;6.00;99.90;;;;;;5038251;28;20220;-83
2021/10/13 05:11:35;;;;;;;258.75;242.25;;;6.10;99.90;;;;;;5038511;28;20443;-83
2021/10/13 05:14:00;;;;;;;280.80;263.47;;;6.10;99.90;;;;;;5039148;28;20166;-83
2021/10/13 05:16:26;;;;;;;290.37;272.77;;;6.10;99.90;;;;;;5038630;28;20166;-82
2021/10/13 05:18:52;;;;;;;294.88;276.50;;;6.10;99.90;;;;;;5038449;28;20188;-82
2021/10/13 05:21:18;;;;;;;276.80;260.00;;;6.20;99.90;;;;;;5038627;28;20158;-83
2021/10/13 05:23:44;;;;;;;279.45;262.13;;;6.20;99.90;;;;;;5038455;28;20492;-82
2021/10/13 05:26:10;;;;;;;286.23;268.83;;;6.30;99.90;;;;;;5037860;28;20212;-83
2021/10/13 05:28:35;;;;;;;268.20;251.23;;;6.30;99.90;;;;;;5039143;28;20192;-83
2021/10/13 05:31:01;;;;;;;261.53;245.43;;;6.30;99.90;;;;;;5039547;28;20165;-83
2021/10/13 05:33:27;;;;;;;271.00;254.63;;;6.30;99.90;;;;;;5038597;28;20193;-83
2021/10/13 05:35:53;;;;;;;288.27;270.67;;;6.40;99.90;;;;;;5037189;28;20172;-83
2021/10/13 05:38:18;;;;;;;258.03;241.73;;;6.40;99.90;;;;;;5038439;28;20173;-83
2021/10/13 05:40:44;;;;;;;285.27;267.57;;;6.30;99.90;;;;;;5038641;28;20215;-83
2021/10/13 05:43:09;;;;;;;293.43;275.87;;;6.30;99.90;;;;;;5037716;28;20169;-83
2021/10/13 05:45:35;;;;;;;284.67;267.53;;;6.30;99.90;;;;;;5038645;28;20168;-83
2021/10/13 05:48:01;;;;;;;272.27;254.47;;;6.20;99.90;;;;;;5038101;28;20207;-83
2021/10/13 05:50:26;;;;;;;277.60;260.77;;;6.20;99.90;;;;;;5038539;28;20169;-83
2021/10/13 05:52:52;;;;;;;288.47;270.83;;;6.10;99.90;;;;;;5038328;28;20193;-83
2021/10/13 05:55:18;;;;;;;282.27;264.93;;;6.10;99.90;;;;;;5037550;28;20169;-82
2021/10/13 05:57:43;;;;;;;260.53;242.87;;;6.10;99.90;;;;;;5038458;28;20213;-83
2021/10/13 06:00:10;;;;;;;248.67;232.47;;;6.10;99.90;;;;;;5037187;28;20162;-83
2021/10/13 06:02:35;;;;;;;257.75;241.23;;;6.10;99.90;;;;;;5036559;28;20310;-83
2021/10/13 06:05:03;;;;;;;266.03;249.07;;;6.00;99.90;;;;;;5036915;28;20219;-83
2021/10/13 06:07:28;;;;;;;278.25;260.85;;;6.10;99.90;;;;;;5036448;28;20565;-84
2021/10/13 06:09:54;;;;;;;265.90;248.80;;;6.10;99.90;;;;;;5037033;28;20176;-83
2021/10/13 06:12:20;;;;;;;264.97;248.47;;;6.20;99.90;;;;;;5037555;28;20193;-83
2021/10/13 06:14:46;;;;;;;269.53;252.93;;;6.20;99.90;;;;;;5036292;28;20256;-84
2021/10/13 06:17:11;;;;;;;232.73;216.53;;;6.30;99.90;;;;;;5038364;28;20442;-84
2021/10/13 06:19:37;;;;;;;270.53;253.47;;;6.30;99.90;;;;;;5039675;28;20154;-84
2021/10/13 06:22:03;;;;;;;234.80;218.50;;;6.30;99.90;;;;;;5037262;28;20957;-84
2021/10/13 06:24:29;;;;;;;253.67;237.47;;;6.30;99.90;;;;;;5038261;28;20247;-84
2021/10/13 06:26:54;;;;;;;235.30;219.83;;;6.40;99.90;;;;;;5038234;28;20669;-83
2021/10/13 06:29:20;;;;;;;220.53;205.27;;;6.40;99.90;;;;;;5037907;28;20172;-84
2021/10/13 06:31:46;;;;;;;247.67;231.23;;;6.50;99.90;;;;;;5038034;28;20189;-84
2021/10/13 06:34:12;;;;;;;220.55;205.50;;;6.60;99.90;;;;;;5036613;28;20166;-84
2021/10/13 06:36:38;;;;;;;233.50;218.20;;;6.70;99.90;;;;;;5037838;28;20169;-84
2021/10/13 06:39:03;;;;;;;239.40;223.43;;;6.80;99.90;;;;;;5036428;28;20181;-84
2021/10/13 06:41:29;;;;;;;208.43;193.53;;;6.80;99.90;;;;;;5038566;28;20691;-83
2021/10/13 06:43:55;;;;;;;201.47;186.70;;;6.90;99.90;;;;;;5037731;28;20633;-84
2021/10/13 06:46:22;;;;;;;233.30;217.68;;;6.90;99.90;;;;;;5037416;28;20165;-84
2021/10/13 06:48:48;;;;;;;231.45;215.73;;;7.00;99.90;;;;;;5037071;28;20188;-84
2021/10/13 06:51:14;;;;;;;201.73;187.40;;;7.10;99.90;;;;;;5038085;28;20626;-85
2021/10/13 06:53:42;;;;;;;208.47;193.37;;;7.10;99.90;;;;;;5037427;28;20169;-85
2021/10/13 06:56:09;;;;;;;223.80;208.57;;;7.10;99.90;;;;;;5038135;28;20161;-84
2021/10/13 06:58:34;;;;;;;210.63;195.68;;;7.10;99.90;;;;;;5037784;28;20219;-85
2021/10/13 07:01:00;;;;;;;227.83;212.13;;;7.20;99.90;;;;;;5037905;28;20620;-84
2021/10/13 07:03:26;;;;;;;213.27;198.53;;;7.20;99.90;;;;;;5036815;28;20248;-84
2021/10/13 07:08:17;;;;;;;206.53;191.23;;;7.40;99.90;;;;;;5110694;22;20236;-84
2021/10/13 07:10:42;;;;;;;221.53;205.47;;;7.50;99.90;;;;;;5055143;28;20176;-83
2021/10/13 07:13:08;;;;;;;245.93;228.83;;;7.60;99.90;;;;;;5056210;28;20283;-83
2021/10/13 07:15:34;;;;;;;221.07;205.55;;;7.60;99.90;;;;;;5057528;28;20198;-83
2021/10/13 07:18:00;;;;;;;240.63;223.43;;;7.70;99.90;;;;;;5057461;28;20181;-84
2021/10/13 07:20:26;;;;;;;223.20;207.27;;;7.80;99.90;;;;;;5055515;28;20252;-84
2021/10/13 07:22:51;;;;;;;236.95;221.02;;;7.90;99.90;;;;;;5054057;28;20596;-84
2021/10/13 07:25:22;;;;;;;227.67;211.80;;;8.00;99.90;;;;;;5057102;28;20177;-83
2021/10/13 07:27:48;;;;;;;235.57;218.70;;;8.10;99.90;;;;;;5056620;28;20193;-83
2021/10/13 07:30:17;;;;;;;211.30;196.03;;;8.10;99.90;;;;;;5056189;28;20655;-82
2021/10/13 07:32:43;;;;;;;285.30;267.08;;;8.10;99.90;;;;;;5055536;28;20187;-84
2021/10/13 07:35:09;;;;;;;249.70;233.13;;;8.20;99.90;;;;;;5056907;28;20167;-83
2021/10/13 07:37:35;;;;;;;266.47;249.00;;;8.20;99.90;;;;;;5056688;28;20180;-83
2021/10/13 07:40:05;;;;;;;269.02;251.52;;;8.30;99.90;;;;;;5056323;28;20399;-84
2021/10/13 07:42:32;;;;;;;269.77;252.60;;;8.30;99.90;;;;;;5056440;28;20176;-84
2021/10/13 07:44:58;;;;;;;248.00;230.57;;;8.40;99.90;;;;;;5055867;28;20604;-84
2021/10/13 07:47:24;;;;;;;237.43;221.07;;;8.50;99.90;;;;;;5056783;28;20216;-84
2021/10/13 07:49:50;;;;;;;269.20;251.97;;;8.60;99.90;;;;;;5055025;28;20207;-84
2021/10/13 07:52:16;;;;;;;242.05;224.93;;;8.70;99.90;;;;;;5056092;28;20192;-83
2021/10/13 07:54:42;;;;;;;284.73;266.83;;;8.70;99.90;;;;;;5056301;28;20169;-84
2021/10/13 07:57:07;;;;;;;281.48;263.70;;;8.80;99.90;;;;;;5056609;28;20168;-83
2021/10/13 07:59:33;;;;;;;289.57;271.97;;;8.90;99.90;;;;;;5056971;28;20157;-84
2021/10/13 08:01:59;;;;;;;276.73;258.40;;;8.90;99.90;;;;;;5055005;28;20426;-84
2021/10/13 08:04:25;;;;;;;301.53;282.87;;;8.90;99.90;;;;;;5056172;28;20165;-83
2021/10/13 08:06:53;;;;;;;311.85;292.20;;;8.90;99.90;;;;;;5055603;28;20200;-82
2021/10/13 08:09:19;;;;;;;300.48;282.10;;;9.00;99.90;;;;;;5055988;28;20196;-83
2021/10/13 08:11:46;;;;;;;282.83;265.00;;;9.00;99.90;;;;;;5056572;28;20192;-83
2021/10/13 08:14:12;;;;;;;249.73;233.73;;;9.10;99.90;;;;;;5056295;28;20273;-83
2021/10/13 08:16:38;;;;;;;274.73;257.10;;;9.10;99.90;;;;;;5055876;28;20157;-83
2021/10/13 08:19:04;;;;;;;287.02;269.45;;;9.10;99.90;;;;;;5055703;28;20180;-84
2021/10/13 08:21:30;;;;;;;267.23;249.97;;;9.10;99.90;;;;;;5056275;28;20161;-83
2021/10/13 08:23:55;;;;;;;309.60;291.00;;;9.10;99.90;;;;;;5056106;28;20187;-84
2021/10/13 08:26:21;;;;;;;270.23;252.63;;;9.20;99.90;;;;;;5057752;28;20202;-83
2021/10/13 08:28:47;;;;;;;317.50;298.20;;;9.30;99.90;;;;;;5058120;28;20188;-83
2021/10/13 08:31:14;;;;;;;318.40;299.17;;;9.50;99.90;;;;;;5058074;28;20160;-84
2021/10/13 08:33:41;;;;;;;326.23;306.38;;;9.70;99.90;;;;;;5058624;28;20439;-83
2021/10/13 08:36:08;;;;;;;314.65;294.98;;;9.80;99.90;;;;;;5059897;28;20145;-84
2021/10/13 08:38:33;;;;;;;291.52;272.98;;;10.00;99.90;;;;;;5057844;28;20199;-83
2021/10/13 08:40:59;;;;;;;291.23;273.40;;;10.10;99.90;;;;;;5058167;28;20165;-83
2021/10/13 08:43:25;;;;;;;304.77;286.80;;;10.20;99.90;;;;;;5058705;28;20169;-83
2021/10/13 08:45:50;;;;;;;309.90;290.80;;;10.30;99.90;;;;;;5059275;28;20222;-84
2021/10/13 08:48:16;;;;;;;268.33;251.00;;;10.30;99.90;;;;;;5058106;28;20189;-83
2021/10/13 08:50:43;;;;;;;271.70;254.90;;;10.40;99.90;;;;;;5056899;28;20173;-83
2021/10/13 08:53:11;;;;;;;274.95;256.95;;;10.60;99.90;;;;;;5057796;28;20439;-83
2021/10/13 08:55:39;;;;;;;279.63;261.70;;;10.70;99.90;;;;;;5058469;28;20615;-82
2021/10/13 08:58:14;;;;;;;273.80;256.35;;;10.70;99.90;;;;;;5058573;28;20180;-83
2021/10/13 09:00:42;;;;;;;258.48;241.82;;;10.70;99.90;;;;;;5056974;28;20172;-84
2021/10/13 09:03:27;;;;;;;282.02;263.23;;;10.80;99.90;;;;;;5057958;28;20218;-83
2021/10/13 09:05:53;;;;;;;303.27;284.63;;;10.80;99.90;;;;;;5057618;28;20176;-83
2021/10/13 09:08:19;;;;;;;318.75;299.58;;;10.80;99.90;;;;;;5058028;28;20200;-83
2021/10/13 09:10:52;;;;;;;281.17;263.48;;;10.80;99.90;;;;;;5058064;28;20177;-84
2021/10/13 09:13:18;;;;;;;323.85;304.42;;;10.80;99.90;;;;;;5057953;28;20199;-83
2021/10/13 09:15:52;;;;;;;306.00;287.63;;;10.80;99.90;;;;;;5057671;28;20196;-84
2021/10/13 09:18:22;;;;;;;295.20;276.52;;;10.90;99.90;;;;;;5057916;28;20204;-84
2021/10/13 09:20:51;;;;;;;329.65;310.15;;;11.10;99.90;;;;;;5058489;28;20169;-84
2021/10/13 09:23:19;;;;;;;356.50;334.67;;;11.20;99.90;;;;;;5058372;28;20238;-83
2021/10/13 09:26:06;;;;;;;328.23;308.75;;;11.40;99.90;;;;;;5058122;28;20524;-84
2021/10/13 09:28:32;;;;;;;363.85;343.13;;;11.40;99.90;;;;;;5056871;28;20218;-83
2021/10/13 09:31:17;;;;;;;344.50;324.37;;;11.40;99.90;;;;;;5058737;28;20165;-84
2021/10/13 09:33:59;;;;;;;335.38;315.15;;;11.40;99.90;;;;;;5058638;28;20439;-83
2021/10/13 09:36:43;;;;;;;325.05;305.65;;;11.40;99.90;;;;;;5056350;28;20165;-83
2021/10/13 09:39:11;;;;;;;281.10;262.05;;;11.40;99.90;;;;;;5058235;28;20184;-83
2021/10/13 09:42:09;;;;;;;273.73;256.13;;;11.50;99.90;;;;;;5058308;28;20625;-84
2021/10/13 09:44:38;;;;;;;296.70;278.65;;;11.60;99.90;;;;;;5058210;28;20154;-84
2021/10/13 09:47:07;;;;;;;277.45;259.83;;;11.60;99.90;;;;;;5058935;28;20185;-83
2021/10/13 09:49:36;;;;;;;216.02;200.65;;;11.70;99.90;;;;;;5059019;28;20184;-84
2021/10/13 09:52:08;;;;;;;213.52;198.07;;;11.90;99.90;;;;;;5058287;28;20180;-84
2021/10/13 09:54:35;;;;;;;206.65;191.32;;;12.00;99.90;;;;;;5058319;28;20604;-84
2021/10/13 09:57:27;;;;;;;222.88;207.38;;;12.10;99.90;;;;;;5058060;28;20165;-83
2021/10/13 10:00:13;;;;;;;208.27;193.48;;;12.10;99.90;;;;;;5058866;28;20145;-83
2021/10/13 10:02:50;;;;;;;190.50;175.75;;;12.20;99.90;;;;;;5057002;28;20161;-84
2021/10/13 10:05:24;;;;;;;239.02;222.98;;;12.20;99.90;;;;;;5058571;28;20275;-83
2021/10/13 10:08:04;;;;;;;297.70;279.77;;;12.40;99.90;;;;;;5056786;28;20762;-83
2021/10/13 10:10:31;;;;;;;298.83;279.88;;;12.60;99.90;;;;;;5057235;28;20173;-83
2021/10/13 10:13:11;;;;;;;265.80;248.27;;;12.80;99.90;;;;;;5057599;28;20271;-83
2021/10/13 10:15:48;;;;;;;268.53;251.20;;;12.80;99.90;;;;;;5056009;28;20662;-83
2021/10/13 10:18:24;;;;;;;254.07;236.65;;;13.00;99.90;;;;;;5057827;28;20447;-83
2021/10/13 10:20:51;;;;;;;179.32;165.00;;;13.00;99.90;;;;;;5056349;28;20578;-83
2021/10/13 10:23:34;;;;;;;129.30;116.63;;;13.20;99.90;;;;;;5058603;28;20214;-84
2021/10/13 10:26:20;;;;;;;145.33;131.83;;;13.20;99.90;;;;;;5056299;28;20949;-83
2021/10/13 10:28:53;;;;;;;93.45;59.72;;;13.20;99.90;;;;;;5047441;28;20439;-83
2021/10/13 10:31:27;;;;;;;86.30;36.30;;;13.40;99.90;;;;;;5057833;28;20270;-83
2021/10/13 10:34:18;;;;;;;88.30;38.40;;;13.50;99.90;;;;;;5057353;28;20766;-83
2021/10/13 10:36:44;;;;;;;109.83;96.80;;;13.70;99.90;;;;;;5057782;28;20391;-83
2021/10/13 10:39:17;;;;;;;118.70;106.83;;;13.80;99.90;;;;;;5056023;28;20431;-82
2021/10/13 10:41:54;;;;;;;97.67;86.93;;;13.80;99.90;;;;;;5057532;28;20156;-83
2021/10/13 10:44:41;;;;;;;96.80;84.37;;;13.80;99.90;;;;;;5056218;28;20402;-82
2021/10/13 10:47:14;;;;;;;106.67;95.50;;;13.80;99.90;;;;;;5056337;28;20407;-82
2021/10/13 10:49:46;;;;;;;111.97;100.10;;;13.60;99.90;;;;;;5056985;28;20419;-83
2021/10/13 10:52:30;;;;;;;113.72;102.25;;;13.60;99.90;;;;;;5056878;28;20767;-84
2021/10/13 10:55:07;;;;;;;114.17;102.50;;;13.60;99.90;;;;;;5056247;28;20149;-83
2021/10/13 10:57:35;;;;;;;102.77;89.67;;;13.80;99.90;;;;;;5054434;28;20484;-82
2021/10/13 11:00:06;;;;;;;107.40;95.90;;;13.90;99.90;;;;;;5055687;28;20396;-83
2021/10/13 11:02:31;;;;;;;127.90;115.70;;;13.90;99.90;;;;;;5055676;28;20392;-82
2021/10/13 11:05:05;;;;;;;125.10;113.33;;;13.80;99.90;;;;;;5055901;28;20406;-84
2021/10/13 11:07:32;;;;;;;104.83;93.67;;;13.80;99.90;;;;;;5055598;28;20196;-83
2021/10/13 11:10:06;;;;;;;101.53;90.50;;;13.80;99.90;;;;;;5055707;28;20409;-82
2021/10/13 11:12:51;;;;;;;107.00;95.77;;;13.80;99.90;;;;;;5054974;28;20458;-83
2021/10/13 11:15:19;;;;;;;96.57;79.20;;;13.90;99.90;;;;;;5056101;28;20435;-83
2021/10/13 11:19:29;;;;;;;87.47;54.07;;;14.00;99.90;;;;;;5070380;22;22412;-82
2021/10/13 11:22:09;;;;;;;;;;;;;;;;;;;;;
2021/10/13 11:25:33;;;;;;;86.97;52.03;;;13.60;99.90;;;;;;4974655;28;20766;-83
2021/10/13 11:28:58;;;;;;;;;;;;;;;;;;;;;
2021/10/13 11:31:24;;;;;;;114.53;103.00;;;13.30;99.90;;;;;;4916141;29;20415;-84
2021/10/13 11:34:04;;;;;;;116.83;105.57;;;13.30;99.90;;;;;;4955650;29;20491;-83
2021/10/13 11:36:29;;;;;;;110.47;99.10;;;13.40;99.90;;;;;;5021907;28;20641;-83
2021/10/13 11:38:56;;;;;;;103.90;92.77;;;13.50;99.90;;;;;;5035519;28;20430;-82
2021/10/13 11:41:21;;;;;;;88.93;61.63;;;13.70;99.90;;;;;;5036094;28;20187;-83
2021/10/13 11:43:47;;;;;;;85.00;52.50;;;13.80;99.90;;;;;;5034560;28;20408;-83
2021/10/13 11:46:18;;;;;;;95.27;69.63;;;13.90;99.90;;;;;;5036244;28;20173;-83
2021/10/13 11:48:43;;;;;;;83.77;46.20;;;13.90;99.90;;;;;;5034504;28;20195;-83
2021/10/13 11:51:14;;;;;;;91.47;58.57;;;13.80;99.90;;;;;;5034678;28;20412;-83
2021/10/13 11:53:41;;;;;;;90.43;67.50;;;13.70;99.90;;;;;;5035539;28;20279;-82
2021/10/13 11:56:12;;;;;;;103.90;84.88;;;13.50;99.90;;;;;;5034379;28;20408;-83
2021/10/13 11:58:39;;;;;;;109.00;97.27;;;13.30;99.90;;;;;;5033716;28;20223;-83
2021/10/13 12:01:06;;;;;;;117.33;105.33;;;13.20;99.90;;;;;;5035438;28;20407;-83
2021/10/13 12:03:36;;;;;;;107.53;96.33;;;13.10;99.90;;;;;;5034883;28;20546;-83
2021/10/13 12:06:03;;;;;;;112.97;101.90;;;13.10;99.90;;;;;;5035481;28;20414;-84
2021/10/13 12:08:35;;;;;;;104.97;94.00;;;13.00;99.90;;;;;;5033732;28;20466;-83
2021/10/13 12:11:21;;;;;;;95.60;80.78;;;12.90;99.90;;;;;;5035952;28;20415;-83
2021/10/13 12:13:50;;;;;;;101.73;90.90;;;12.80;99.90;;;;;;5033651;28;20647;-84
2021/10/13 12:16:24;;;;;;;112.15;101.15;;;12.80;99.90;;;;;;5035254;28;20416;-84
2021/10/13 12:18:50;;;;;;;109.47;98.33;;;12.90;99.90;;;;;;5034286;28;20677;-84
2021/10/13 12:21:18;;;;;;;115.60;104.13;;;12.90;99.90;;;;;;5033705;28;20819;-84
2021/10/13 12:23:46;;;;;;;101.33;90.57;;;12.90;99.90;;;;;;5033734;28;20200;-84
2021/10/13 12:26:16;;;;;;;109.67;98.50;;;13.00;99.90;;;;;;5035166;28;20483;-84
2021/10/13 12:28:43;;;;;;;125.63;113.23;;;13.10;99.90;;;;;;5034373;28;20443;-84
2021/10/13 12:31:12;;;;;;;111.10;100.03;;;13.30;99.90;;;;;;5034722;28;20408;-84
2021/10/13 12:33:53;;;;;;;118.47;106.87;;;13.50;99.90;;;;;;5034989;28;20935;-84
2021/10/13 12:36:24;;;;;;;113.43;101.97;;;13.60;99.90;;;;;;5034704;28;20384;-84
2021/10/13 12:38:56;;;;;;;102.60;91.57;;;13.80;99.90;;;;;;5034207;28;20449;-84
2021/10/13 12:41:34;;;;;;;106.87;95.47;;;13.80;99.90;;;;;;5034672;28;20436;-83